Terminal Aerodrome Forecast
Issued by NWS Wilmington, OH

Home | Current Version | Previous Version | Text Only | Print | Product List | Glossary On
Versions: 1 2 3 4 5 6 7 8 9 10 11 12 13 14 15 16 17 18
000
FTUS41 KILN 290500
TAFILN
TAF
KILN 290520Z 2906/3006 VRB05KT P6SM SKC
     FM291300 18012KT P6SM BKN200
     FM291600 19014G22KT P6SM BKN150
     FM292300 19010KT P6SM -SHRA SCT050 OVC080
     FM300500 22010KT P6SM VCSH OVC022=

USA.gov is the U.S. government's official web portal to all federal, state and local government web resources and services.